Time;durP1;ratioP1;P1;durP2;ratioP2;P2;SDS_P1;SDS_P2;PMS_P1;PMS_P2;Temp;Humidity;BMP_temperature;BMP_pressure;BME280_temperature;BME280_humidity;BME280_pressure;Samples;Min_cycle;Max_cycle;Signal;HPM_P1;HPM_P2
2023/04/07 00:01:03;;;;;;;30.65;14.57;;;;;;;9.60;69.81;100336.75;10148114;29;20045;-64
2023/04/07 00:06:04;;;;;;;26.92;14.65;;;;;;;9.64;70.06;100330.03;10149172;23;20049;-91
2023/04/07 00:11:07;;;;;;;24.63;13.77;;;;;;;9.62;69.76;100326.69;10084577;29;20084;-91
2023/04/07 00:16:10;;;;;;;26.55;14.48;;;;;;;9.61;70.09;100326.84;10078344;29;20053;-91
2023/04/07 00:21:14;;;;;;;27.08;14.88;;;;;;;9.63;70.32;100314.94;10070274;29;20080;-92
2023/04/07 00:26:21;;;;;;;28.60;15.02;;;;;;;9.59;70.67;100320.81;10084943;29;20085;-92
2023/04/07 00:31:27;;;;;;;26.88;15.68;;;;;;;9.67;70.64;100318.94;10083972;29;20077;-92
2023/04/07 00:36:32;;;;;;;29.05;14.77;;;;;;;9.70;70.81;100305.19;10066969;29;20058;-90
2023/04/07 00:41:38;;;;;;;32.42;16.27;;;;;;;9.64;70.83;100297.84;10067996;29;20054;-90
2023/04/07 00:46:40;;;;;;;31.55;16.27;;;;;;;9.68;71.23;100292.97;10057511;29;20069;-89
2023/04/07 00:51:44;;;;;;;30.70;15.57;;;;;;;9.63;71.26;100290.78;10068908;29;20058;-90
2023/04/07 00:56:46;;;;;;;28.95;15.50;;;;;;;9.64;71.20;100284.41;10078170;29;20816;-91
2023/04/07 01:02:01;;;;;;;32.42;15.85;;;;;;;9.63;71.65;100274.69;10070029;29;20056;-91
2023/04/07 01:07:10;;;;;;;32.10;16.58;;;;;;;9.54;71.72;100273.03;10051250;29;20038;-92
2023/04/07 01:12:27;;;;;;;30.52;16.05;;;;;;;9.57;71.84;100272.69;10063170;29;20049;-92
2023/04/07 01:17:33;;;;;;;36.13;16.83;;;;;;;9.59;71.92;100265.31;10071989;29;20037;-92
2023/04/07 01:22:45;;;;;;;31.85;15.80;;;;;;;9.55;72.12;100253.25;10082026;29;20057;-92
2023/04/07 01:28:02;;;;;;;34.67;15.73;;;;;;;9.52;72.59;100250.91;10084115;29;20033;-92
2023/04/07 01:33:10;;;;;;;36.67;16.70;;;;;;;9.55;72.40;100242.50;10082386;29;20057;-92
2023/04/07 01:38:15;;;;;;;33.97;15.52;;;;;;;9.55;72.42;100234.44;10068142;29;20124;-92
2023/04/07 01:43:17;;;;;;;33.13;16.13;;;;;;;9.56;72.59;100241.50;10087997;23;20054;-69
2023/04/07 01:48:19;;;;;;;35.40;18.17;;;;;;;9.58;72.25;100236.81;10120112;29;20500;-69
2023/04/07 01:53:22;;;;;;;33.63;17.20;;;;;;;9.55;72.63;100233.63;10144793;29;20051;-68
2023/04/07 01:58:24;;;;;;;28.45;15.73;;;;;;;9.47;73.38;100234.47;10131712;29;20048;-69
2023/04/07 02:04:04;;;;;;;30.67;15.00;;;;;;;9.40;73.49;100225.44;10142466;29;20084;-69
2023/04/07 02:09:09;;;;;;;29.70;15.23;;;;;;;9.43;73.15;100225.94;10126421;29;20662;-71
2023/04/07 02:14:13;;;;;;;32.67;15.93;;;;;;;9.43;73.46;100222.41;10142551;29;20116;-71
2023/04/07 02:19:14;;;;;;;31.48;15.02;;;;;;;9.44;73.53;100221.41;10135808;29;20116;-70
2023/04/07 02:24:19;;;;;;;28.10;14.98;;;;;;;9.43;73.14;100217.88;10141472;29;20060;-69
2023/04/07 02:29:22;;;;;;;30.45;14.68;;;;;;;9.47;73.58;100219.22;10164574;29;20076;-67
2023/04/07 02:34:23;;;;;;;27.58;13.93;;;;;;;9.50;73.37;100213.50;10176263;29;20065;-71
2023/04/07 02:39:25;;;;;;;26.00;13.38;;;;;;;9.42;73.31;100205.50;10145660;29;20060;-68
2023/04/07 02:44:26;;;;;;;24.52;12.65;;;;;;;9.37;73.57;100215.06;10155547;29;20524;-70
2023/04/07 02:49:27;;;;;;;29.75;13.70;;;;;;;9.36;74.20;100208.88;10139334;29;20041;-70
2023/04/07 02:54:29;;;;;;;25.17;12.95;;;;;;;9.30;73.78;100214.88;10121829;29;20125;-70
2023/04/07 02:59:30;;;;;;;25.20;13.00;;;;;;;9.38;73.61;100203.31;10138525;29;20052;-69
2023/04/07 03:04:32;;;;;;;28.08;12.35;;;;;;;9.37;73.76;100207.00;10141383;29;20052;-70
2023/04/07 03:09:33;;;;;;;28.38;13.55;;;;;;;9.27;74.37;100202.66;10133236;29;20511;-70
2023/04/07 03:14:35;;;;;;;25.10;12.45;;;;;;;9.30;74.08;100199.66;10127714;29;20056;-69
2023/04/07 03:19:36;;;;;;;24.27;12.57;;;;;;;9.25;74.34;100187.75;10133940;29;20064;-69
2023/04/07 03:24:39;;;;;;;28.38;13.60;;;;;;;9.27;74.19;100183.88;10141769;29;20052;-71
2023/04/07 03:29:40;;;;;;;22.63;12.30;;;;;;;9.23;74.58;100190.59;10129361;29;20076;-68
2023/04/07 03:34:42;;;;;;;26.33;12.98;;;;;;;9.20;74.36;100180.25;10130341;29;20080;-71
2023/04/07 03:39:43;;;;;;;22.35;11.35;;;;;;;9.18;74.75;100181.41;10124097;29;20065;-71
2023/04/07 03:44:45;;;;;;;29.95;13.23;;;;;;;9.19;74.56;100178.56;10135997;29;20052;-71
2023/04/07 03:49:46;;;;;;;28.15;14.05;;;;;;;9.22;74.22;100177.38;10153715;29;20167;-68
2023/04/07 03:54:47;;;;;;;27.77;13.70;;;;;;;9.23;74.63;100187.94;10155357;29;20080;-72
2023/04/07 03:59:50;;;;;;;31.38;13.32;;;;;;;9.30;74.31;100180.88;10135630;29;20104;-72
2023/04/07 04:04:51;;;;;;;32.88;13.38;;;;;;;9.33;74.62;100183.19;10157196;29;20039;-67
2023/04/07 04:09:53;;;;;;;29.60;14.25;;;;;;;9.39;74.25;100181.69;10234309;23;20048;-91
2023/04/07 04:14:54;;;;;;;28.73;14.35;;;;;;;9.37;74.55;100172.13;10179409;29;20059;-92
2023/04/07 04:19:56;;;;;;;27.23;13.18;;;;;;;9.36;74.64;100179.34;10189110;23;20056;-92
2023/04/07 04:30:36;;;;;;;34.00;14.50;;;;;;;9.43;74.42;100174.13;10631171;23;20112;-92
2023/04/07 04:35:40;;;;;;;54.15;29.73;;;;;;;9.46;74.64;100179.16;10186461;29;20043;-91
2023/04/07 04:40:42;;;;;;;32.33;14.52;;;;;;;9.48;74.29;100182.50;10225559;29;20040;-91
2023/04/07 04:45:46;;;;;;;29.55;13.68;;;;;;;9.43;74.85;100184.84;10207295;29;20077;-91
2023/04/07 04:50:49;;;;;;;30.33;13.18;;;;;;;9.41;74.55;100187.72;10202852;23;20056;-70
2023/04/07 04:55:52;;;;;;;26.13;11.85;;;;;;;9.39;74.96;100183.53;10212284;29;20144;-71
2023/04/07 05:00:56;;;;;;;26.15;11.77;;;;;;;9.40;74.67;100186.06;10215445;29;20047;-71
2023/04/07 05:05:58;;;;;;;26.40;12.15;;;;;;;9.44;74.49;100189.19;10226949;29;20086;-69
2023/04/07 05:11:00;;;;;;;25.85;12.23;;;;;;;9.42;74.60;100191.22;10218731;29;20052;-71
2023/04/07 05:16:01;;;;;;;31.35;12.30;;;;;;;9.38;74.65;100189.91;10223170;29;20051;-70
2023/04/07 05:21:03;;;;;;;25.45;12.13;;;;;;;9.40;75.10;100194.09;10209630;29;20494;-71
2023/04/07 05:26:04;;;;;;;23.80;12.25;;;;;;;9.40;74.82;100187.88;10188074;29;20063;-73
2023/04/07 05:31:05;;;;;;;25.58;11.35;;;;;;;9.46;74.55;100179.16;10200171;29;20059;-71
2023/04/07 05:36:08;;;;;;;24.17;12.23;;;;;;;9.45;74.66;100186.34;10199934;29;20052;-71
2023/04/07 05:41:09;;;;;;;25.13;11.80;;;;;;;9.48;74.61;100177.97;10169103;29;20071;-71
2023/04/07 05:46:11;;;;;;;24.30;12.00;;;;;;;9.53;74.63;100185.50;10196760;29;20048;-71
2023/04/07 05:51:13;;;;;;;26.88;12.40;;;;;;;9.47;75.09;100186.19;10172832;29;20060;-70
2023/04/07 05:56:14;;;;;;;24.75;12.25;;;;;;;9.59;74.88;100189.34;10185987;29;20107;-69
2023/04/07 06:01:16;;;;;;;24.45;12.13;;;;;;;9.53;75.11;100191.69;10186145;29;20063;-69
2023/04/07 06:06:17;;;;;;;24.00;12.20;;;;;;;9.58;75.02;100182.28;10167033;29;20411;-69
2023/04/07 06:11:19;;;;;;;24.60;12.05;;;;;;;9.63;74.59;100185.28;10187216;29;20120;-68
2023/04/07 06:16:21;;;;;;;27.00;12.95;;;;;;;9.62;74.80;100189.81;10183158;29;20399;-69
2023/04/07 06:21:24;;;;;;;18.65;11.15;;;;;;;9.68;74.89;100189.13;10186849;29;20059;-69
2023/04/07 06:26:26;;;;;;;25.80;12.00;;;;;;;9.71;74.59;100191.44;10179417;29;20072;-69
2023/04/07 06:31:27;;;;;;;23.85;11.93;;;;;;;9.78;74.86;100188.09;10171088;29;20106;-68
2023/04/07 06:36:29;;;;;;;23.67;11.82;;;;;;;9.86;74.65;100191.56;10185482;29;20112;-70
2023/04/07 06:41:31;;;;;;;22.15;11.55;;;;;;;9.77;75.33;100186.41;10184915;29;20049;-69
2023/04/07 06:46:32;;;;;;;24.20;11.95;;;;;;;9.77;75.29;100189.09;10179103;29;20056;-70
2023/04/07 06:51:34;;;;;;;30.13;11.52;;;;;;;9.80;74.91;100199.50;10195380;29;20056;-70
2023/04/07 06:56:35;;;;;;;22.30;11.70;;;;;;;9.81;75.12;100199.28;10188889;29;20048;-69
2023/04/07 07:01:37;;;;;;;26.13;12.48;;;;;;;9.89;74.91;100199.28;10191293;29;20057;-69
2023/04/07 07:06:38;;;;;;;23.10;11.90;;;;;;;9.95;74.95;100200.41;10176749;29;20058;-69
2023/04/07 07:11:40;;;;;;;21.48;10.68;;;;;;;9.93;75.12;100203.28;10179431;29;20072;-69
2023/04/07 07:16:41;;;;;;;22.52;11.27;;;;;;;9.91;75.19;100199.94;10190727;29;20555;-68
2023/04/07 07:21:42;;;;;;;31.05;11.52;;;;;;;9.91;75.21;100204.44;10186798;29;20051;-68
2023/04/07 07:26:44;;;;;;;25.05;11.52;;;;;;;9.98;75.30;100199.22;10177801;29;21153;-69
2023/04/07 07:31:46;;;;;;;21.25;12.10;;;;;;;10.00;75.16;100203.41;10186809;29;20060;-69
2023/04/07 07:36:47;;;;;;;25.08;12.30;;;;;;;10.12;75.41;100209.22;10184195;29;20043;-70
2023/04/07 07:41:50;;;;;;;20.30;11.15;;;;;;;10.18;75.38;100205.81;10190090;29;20056;-66
2023/04/07 07:46:51;;;;;;;21.65;11.40;;;;;;;10.26;74.99;100213.00;10190445;28;20039;-67
2023/04/07 07:51:53;;;;;;;21.92;11.52;;;;;;;10.25;75.22;100212.16;10173180;29;20552;-68
2023/04/07 07:56:56;;;;;;;25.15;11.82;;;;;;;10.31;74.98;100214.16;10186274;29;20502;-67
2023/04/07 08:02:00;;;;;;;22.55;12.10;;;;;;;10.36;75.31;100219.00;10189235;29;20060;-68
2023/04/07 08:07:03;;;;;;;24.98;12.82;;;;;;;10.40;75.12;100232.94;10192609;29;20052;-69
2023/04/07 08:12:04;;;;;;;20.40;10.93;;;;;;;10.37;75.11;100230.56;10194243;29;20055;-68
2023/04/07 08:17:06;;;;;;;23.67;10.77;;;;;;;10.22;75.27;100233.16;10190315;29;20051;-69
2023/04/07 08:22:07;;;;;;;20.05;11.98;;;;;;;10.14;75.42;100236.72;10190280;29;20087;-68
2023/04/07 08:27:08;;;;;;;20.45;11.90;;;;;;;10.21;75.51;100247.59;10185613;29;20040;-67
2023/04/07 08:32:10;;;;;;;20.88;11.35;;;;;;;10.31;74.99;100241.03;10190961;29;20149;-68
2023/04/07 08:37:11;;;;;;;17.92;11.38;;;;;;;10.34;74.99;100242.53;10185287;29;20052;-69
2023/04/07 08:42:15;;;;;;;23.45;11.63;;;;;;;10.41;75.20;100235.44;10164884;29;20099;-69
2023/04/07 08:47:17;;;;;;;21.83;13.27;;;;;;;10.47;75.10;100247.34;10188339;29;20048;-69
2023/04/07 08:52:22;;;;;;;26.02;13.68;;;;;;;10.53;75.75;100254.69;10182606;29;20060;-71
2023/04/07 08:57:23;;;;;;;22.73;12.32;;;;;;;10.60;75.84;100257.47;10183606;29;20054;-70
2023/04/07 09:02:25;;;;;;;23.30;12.90;;;;;;;10.73;75.72;100252.34;10166548;29;20099;-69
2023/04/07 09:07:27;;;;;;;22.77;12.27;;;;;;;10.64;76.25;100265.03;10183214;29;20066;-72
2023/04/07 09:12:30;;;;;;;19.05;12.52;;;;;;;10.60;76.25;100257.47;10177854;29;20059;-70
2023/04/07 09:17:31;;;;;;;20.58;11.82;;;;;;;10.68;76.22;100271.72;10201020;29;20052;-67
2023/04/07 09:22:35;;;;;;;22.80;12.15;;;;;;;10.70;75.93;100276.91;10232178;29;20078;-68
2023/04/07 09:27:37;;;;;;;21.13;10.95;;;;;;;10.79;75.88;100272.31;10233167;28;20125;-68
2023/04/07 09:32:38;;;;;;;17.70;10.88;;;;;;;10.90;75.36;100267.34;10236501;28;20048;-68
2023/04/07 09:37:41;;;;;;;19.27;10.73;;;;;;;10.86;75.75;100273.25;10234124;28;20103;-68
2023/04/07 09:42:47;;;;;;;20.58;11.20;;;;;;;10.94;75.28;100269.66;10231635;28;20051;-68
2023/04/07 09:47:48;;;;;;;16.15;10.23;;;;;;;11.07;74.88;100277.97;10226542;28;20036;-68
2023/04/07 09:52:51;;;;;;;19.27;11.43;;;;;;;11.18;74.79;100280.22;10221763;28;20032;-68
2023/04/07 09:57:54;;;;;;;16.65;10.80;;;;;;;11.18;74.89;100280.22;10191666;29;20058;-68
2023/04/07 10:02:56;;;;;;;21.75;11.88;;;;;;;11.25;74.74;100265.00;10234489;28;20107;-68
2023/04/07 10:08:01;;;;;;;18.65;11.18;;;;;;;11.30;74.84;100272.56;10227233;23;20092;-88
2023/04/07 10:13:05;;;;;;;22.05;11.95;;;;;;;11.31;74.92;100274.22;10210937;29;20559;-90
2023/04/07 10:18:07;;;;;;;18.17;11.77;;;;;;;11.37;74.96;100278.03;10202255;29;20051;-89
2023/04/07 10:23:21;;;;;;;19.33;10.98;;;;;;;11.34;74.88;100289.19;10225074;29;20040;-89
2023/04/07 10:28:24;;;;;;;17.55;10.95;;;;;;;11.39;75.12;100292.97;10188701;29;20051;-90
2023/04/07 10:33:51;;;;;;;19.23;10.40;;;;;;;11.42;74.58;100297.19;10192924;29;20115;-89
2023/04/07 10:39:08;;;;;;;18.25;10.73;;;;;;;11.38;75.28;100293.19;10191672;29;20094;-89
2023/04/07 10:44:41;;;;;;;19.13;10.93;;;;;;;11.35;75.20;100302.44;10213881;29;20059;-90
2023/04/07 10:50:18;;;;;;;20.98;10.70;;;;;;;11.36;75.09;100303.28;10214891;29;20072;-88
2023/04/07 10:55:40;;;;;;;14.93;10.07;;;;;;;11.36;75.34;100314.06;10223760;29;20040;-88
2023/04/07 11:01:07;;;;;;;15.90;9.88;;;;;;;11.49;74.77;100322.31;10298144;23;20129;-89
2023/04/07 11:06:13;;;;;;;14.27;9.18;;;;;;;11.58;75.16;100317.72;10194475;28;20099;-90
2023/04/07 11:11:40;;;;;;;13.85;8.52;;;;;;;11.54;75.36;100327.19;10176676;23;20452;-62
2023/04/07 11:16:43;;;;;;;12.25;8.18;;;;;;;11.66;74.89;100320.31;10157930;29;20052;-62
2023/04/07 11:21:45;;;;;;;10.40;6.35;;;;;;;11.78;75.06;100318.84;10158931;29;20111;-62
2023/04/07 11:26:47;;;;;;;11.82;8.02;;;;;;;11.84;74.51;100325.34;10157759;29;20044;-62
2023/04/07 11:31:51;;;;;;;13.70;7.50;;;;;;;11.89;75.13;100328.38;10148183;29;20048;-62
2023/04/07 11:36:53;;;;;;;10.88;6.95;;;;;;;11.84;74.83;100325.34;10151286;29;20234;-61
2023/04/07 11:41:54;;;;;;;9.07;6.60;;;;;;;11.88;74.64;100329.34;10154277;29;20176;-62
2023/04/07 11:46:57;;;;;;;9.18;6.63;;;;;;;11.88;74.78;100340.13;10136184;29;20471;-62
2023/04/07 11:52:01;;;;;;;10.65;6.70;;;;;;;11.94;74.69;100339.41;10134451;29;20052;-62
2023/04/07 11:57:03;;;;;;;11.35;5.72;;;;;;;11.89;74.91;100345.34;10151829;29;20052;-62
2023/04/07 12:02:05;;;;;;;8.00;5.63;;;;;;;11.86;74.92;100347.53;10150295;29;20120;-62
2023/04/07 12:07:09;;;;;;;10.07;5.43;;;;;;;12.07;74.71;100339.59;10156229;29;20052;-62
2023/04/07 12:12:11;;;;;;;7.97;5.80;;;;;;;12.23;74.40;100348.53;10153063;29;20051;-62
2023/04/07 12:17:22;;;;;;;8.63;5.72;;;;;;;12.22;74.08;100349.53;10150751;29;20080;-61
2023/04/07 12:22:23;;;;;;;9.57;5.43;;;;;;;12.32;74.65;100360.84;10151459;29;20136;-63
2023/04/07 12:27:25;;;;;;;7.80;5.03;;;;;;;12.46;74.77;100354.63;10151990;29;20079;-63
2023/04/07 12:32:42;;;;;;;;;;;;;;;12.67;74.70;100358.41;10154240;29;20048;-63
2023/04/07 12:37:45;;;;;;;6.03;4.13;;;;;;;13.02;74.28;100358.59;10153021;29;20029;-64
2023/04/07 12:42:48;;;;;;;4.70;4.00;;;;;;;13.26;73.86;100350.09;10153865;29;20435;-63
2023/04/07 12:47:50;;;;;;;5.97;3.92;;;;;;;13.59;73.33;100356.84;10151645;29;20135;-65
2023/04/07 12:52:52;;;;;;;3.58;3.17;;;;;;;13.78;72.27;100355.31;10155949;29;20052;-65
2023/04/07 12:57:54;;;;;;;4.38;2.90;;;;;;;13.84;72.13;100354.53;10152394;29;20151;-65
2023/04/07 13:02:56;;;;;;;6.13;3.63;;;;;;;13.93;71.76;100349.81;10153209;29;20114;-65
2023/04/07 13:07:58;;;;;;;3.05;2.72;;;;;;;13.95;71.44;100356.69;10146456;29;20052;-66
2023/04/07 13:13:00;;;;;;;3.70;2.92;;;;;;;13.95;70.84;100356.69;10131559;29;20384;-65
2023/04/07 13:18:01;;;;;;;7.75;4.43;;;;;;;13.93;70.17;100358.75;10151739;29;20075;-66
2023/04/07 13:23:03;;;;;;;3.38;2.20;;;;;;;13.76;70.36;100357.38;10133995;29;20112;-66
2023/04/07 13:28:10;;;;;;;4.65;3.65;;;;;;;13.40;70.80;100361.88;10154477;29;20052;-66
2023/04/07 13:33:12;;;;;;;5.28;3.30;;;;;;;13.21;70.60;100360.66;10133282;29;20130;-66
2023/04/07 13:38:13;;;;;;;3.17;2.58;;;;;;;13.07;70.51;100369.63;10155286;29;20108;-65
2023/04/07 13:43:16;;;;;;;2.95;2.15;;;;;;;12.93;71.02;100367.81;10151835;29;20056;-65
2023/04/07 13:48:18;;;;;;;3.67;3.00;;;;;;;12.86;71.06;100370.44;10134909;29;20107;-65
2023/04/07 13:53:20;;;;;;;2.90;2.45;;;;;;;12.99;70.75;100372.44;10151834;29;20093;-65
2023/04/07 13:58:21;;;;;;;2.67;1.92;;;;;;;13.11;70.99;100360.09;10154320;29;20135;-65
2023/04/07 14:03:23;;;;;;;3.35;2.13;;;;;;;13.28;70.75;100366.09;10143985;29;20504;-65
2023/04/07 14:08:25;;;;;;;2.60;2.08;;;;;;;13.51;70.27;100360.53;10155498;29;20049;-64
2023/04/07 14:13:26;;;;;;;1.33;1.23;;;;;;;13.61;70.24;100366.41;10153247;29;20103;-65
2023/04/07 14:18:27;;;;;;;1.00;0.80;;;;;;;13.42;70.78;100365.22;10155285;29;20060;-64
2023/04/07 14:23:30;;;;;;;1.98;0.63;;;;;;;13.46;70.33;100371.91;10145735;29;20523;-65
2023/04/07 14:28:38;;;;;;;1.00;0.65;;;;;;;13.66;69.87;100363.97;10153607;29;20139;-62
2023/04/07 14:33:44;;;;;;;1.48;0.60;;;;;;;13.88;69.90;100366.59;10154815;29;20104;-65
2023/04/07 14:38:46;;;;;;;0.50;0.50;;;;;;;14.23;69.07;100372.03;10154380;29;20080;-65
2023/04/07 14:43:50;;;;;;;0.70;0.50;;;;;;;14.35;69.54;100365.03;10146718;29;20131;-65
2023/04/07 14:48:55;;;;;;;0.73;0.57;;;;;;;14.74;69.16;100365.44;10148046;29;20427;-65
2023/04/07 14:53:57;;;;;;;0.80;0.60;;;;;;;15.47;68.11;100355.56;10152571;29;20147;-65
2023/04/07 14:58:58;;;;;;;1.25;0.52;;;;;;;15.85;66.72;100356.81;10160406;29;20457;-66
2023/04/07 15:04:00;;;;;;;0.40;0.40;;;;;;;15.77;66.20;100366.00;10157704;29;20096;-66
2023/04/07 15:09:01;;;;;;;0.40;0.30;;;;;;;15.52;65.94;100373.94;10159256;29;20052;-66
2023/04/07 15:14:04;;;;;;;0.52;0.10;;;;;;;15.31;65.17;100376.81;10156082;29;20092;-67
2023/04/07 15:19:06;;;;;;;0.20;0.20;;;;;;;15.21;64.84;100372.63;10154383;29;20631;-66
2023/04/07 15:24:07;;;;;;;0.10;0.10;;;;;;;15.22;64.24;100377.00;10154290;29;20163;-67
2023/04/07 15:29:08;;;;;;;0.10;0.10;;;;;;;15.21;63.73;100385.34;10132852;29;20072;-67
2023/04/07 15:34:10;;;;;;;1.42;0.20;;;;;;;15.14;63.31;100382.59;10158108;29;20535;-67
2023/04/07 15:39:11;;;;;;;0.30;0.20;;;;;;;14.91;63.50;100393.81;10151516;29;20084;-67
2023/04/07 15:44:17;;;;;;;0.40;0.30;;;;;;;14.64;63.78;100382.88;10159819;29;20556;-67
2023/04/07 15:49:21;;;;;;;0.80;0.35;;;;;;;14.43;63.99;100393.78;10159520;29;20063;-67
2023/04/07 15:54:25;;;;;;;0.82;0.50;;;;;;;14.33;64.38;100398.72;10156793;29;20713;-67
2023/04/07 15:59:29;;;;;;;1.55;0.70;;;;;;;14.22;64.94;100400.13;10138971;29;20078;-67
2023/04/07 16:04:30;;;;;;;1.00;0.60;;;;;;;14.13;64.93;100402.13;10157212;29;20104;-68
2023/04/07 16:09:32;;;;;;;1.10;0.70;;;;;;;14.07;64.79;100402.94;10152997;29;20692;-67
2023/04/07 16:14:35;;;;;;;0.85;0.50;;;;;;;13.90;65.40;100410.47;10156212;29;20052;-67
2023/04/07 16:19:36;;;;;;;2.00;0.60;;;;;;;13.84;65.62;100405.88;10129655;29;20056;-67
2023/04/07 16:24:37;;;;;;;1.00;0.60;;;;;;;13.81;65.36;100412.50;10152777;29;20138;-65
2023/04/07 16:29:39;;;;;;;1.08;0.50;;;;;;;13.74;65.52;100413.47;10153508;29;20052;-64
2023/04/07 16:34:40;;;;;;;0.63;0.63;;;;;;;13.65;65.96;100418.19;10134485;29;20496;-67
2023/04/07 16:39:41;;;;;;;2.15;1.95;;;;;;;13.64;66.20;100420.03;10136606;29;20052;-66
2023/04/07 16:44:43;;;;;;;1.50;1.00;;;;;;;13.57;66.19;100421.88;10151356;29;20048;-65
2023/04/07 16:49:44;;;;;;;0.95;0.60;;;;;;;13.50;66.14;100429.06;10151841;29;20092;-65
2023/04/07 16:54:46;;;;;;;1.17;0.80;;;;;;;13.54;66.28;100435.75;10154751;29;20104;-65
2023/04/07 16:59:47;;;;;;;0.65;0.50;;;;;;;13.44;66.16;100440.63;10155762;29;20052;-64
2023/04/07 17:04:49;;;;;;;0.75;0.40;;;;;;;13.40;66.65;100442.88;10150425;29;20136;-64
2023/04/07 17:09:50;;;;;;;1.10;0.70;;;;;;;13.48;66.26;100444.63;10155219;29;20052;-65
2023/04/07 17:14:51;;;;;;;0.88;0.73;;;;;;;13.48;66.07;100442.75;10156817;29;20112;-63
2023/04/07 17:19:53;;;;;;;0.93;0.80;;;;;;;13.45;66.49;100459.34;10153675;29;20468;-66
2023/04/07 17:24:57;;;;;;;1.20;0.75;;;;;;;13.45;66.52;100461.22;10153158;29;20063;-63
2023/04/07 17:29:58;;;;;;;2.30;1.60;;;;;;;13.37;66.47;100467.59;10147572;29;20056;-62
2023/04/07 17:35:00;;;;;;;0.82;0.60;;;;;;;13.38;66.52;100466.53;10152163;29;20651;-63
2023/04/07 17:40:02;;;;;;;0.77;0.60;;;;;;;13.21;66.55;100474.03;10152017;29;20044;-64
2023/04/07 17:45:05;;;;;;;1.27;0.90;;;;;;;13.13;66.98;100481.38;10125550;29;20087;-64
2023/04/07 17:50:07;;;;;;;0.77;0.77;;;;;;;13.08;67.06;100484.66;10153200;29;20669;-64
2023/04/07 17:55:09;;;;;;;1.08;0.60;;;;;;;13.06;66.91;100494.81;10150986;29;20147;-63
2023/04/07 18:00:11;;;;;;;2.38;1.08;;;;;;;13.00;67.15;100500.97;10147754;29;20399;-65
2023/04/07 18:05:13;;;;;;;1.85;1.05;;;;;;;12.96;67.16;100508.59;10153861;29;20139;-64
2023/04/07 18:10:15;;;;;;;0.75;0.70;;;;;;;12.88;66.75;100511.38;10157342;29;20051;-63
2023/04/07 18:15:16;;;;;;;1.40;0.50;;;;;;;12.90;67.13;100512.03;10153931;29;20127;-60
2023/04/07 18:20:18;;;;;;;1.02;0.47;;;;;;;12.79;66.91;100521.41;10157782;29;20036;-61
2023/04/07 18:25:20;;;;;;;0.70;0.60;;;;;;;12.72;67.43;100528.59;10178001;29;20056;-61
2023/04/07 18:30:22;;;;;;;5.72;1.33;;;;;;;12.65;67.35;100530.34;10180787;29;20048;-60
2023/04/07 18:35:24;;;;;;;1.48;0.52;;;;;;;12.57;67.08;100528.56;10181506;29;20124;-60
2023/04/07 18:40:28;;;;;;;1.17;0.77;;;;;;;12.48;67.12;100537.78;10180637;29;20139;-60
2023/04/07 18:45:30;;;;;;;1.55;0.70;;;;;;;12.40;67.82;100551.31;10179806;29;20059;-59
2023/04/07 18:50:32;;;;;;;3.38;1.48;;;;;;;12.39;67.67;100555.91;10168379;29;20085;-60
2023/04/07 18:55:33;;;;;;;6.40;2.60;;;;;;;12.35;67.26;100567.22;10182881;29;20056;-60
2023/04/07 19:00:35;;;;;;;2.00;1.30;;;;;;;12.21;67.94;100577.78;10185922;29;20376;-61
2023/04/07 19:05:38;;;;;;;2.75;1.50;;;;;;;12.09;67.73;100581.94;10184298;29;20470;-60
2023/04/07 19:10:39;;;;;;;4.00;2.50;;;;;;;11.96;67.83;100587.06;10180711;29;20051;-60
2023/04/07 19:15:44;;;;;;;3.08;1.90;;;;;;;11.82;68.27;100588.66;10171394;29;20052;-60
2023/04/07 19:20:46;;;;;;;2.78;1.85;;;;;;;11.73;68.38;100595.94;10187279;29;20108;-60
2023/04/07 19:25:47;;;;;;;2.28;2.05;;;;;;;11.50;68.72;100593.22;10185189;29;20052;-60
2023/04/07 19:30:49;;;;;;;3.58;2.13;;;;;;;11.28;68.82;100605.59;10180512;29;20060;-60
2023/04/07 19:35:50;;;;;;;2.72;2.05;;;;;;;11.23;68.95;100602.56;10177782;29;20052;-60
2023/04/07 19:40:52;;;;;;;3.53;2.20;;;;;;;11.08;69.16;100599.78;10178883;29;20062;-60
2023/04/07 19:45:53;;;;;;;2.65;1.30;;;;;;;10.85;69.33;100605.88;10178265;29;20060;-60
2023/04/07 19:50:55;;;;;;;2.17;1.77;;;;;;;10.68;69.78;100614.97;10177312;29;20085;-61
2023/04/07 19:55:57;;;;;;;2.92;2.00;;;;;;;10.65;69.73;100616.16;10188233;29;20052;-60
2023/04/07 20:00:58;;;;;;;2.78;2.30;;;;;;;10.67;69.83;100622.22;10186539;29;20222;-61
2023/04/07 20:06:00;;;;;;;2.63;2.17;;;;;;;10.83;69.35;100615.13;10170805;29;20088;-59
2023/04/07 20:11:01;;;;;;;3.60;2.30;;;;;;;10.87;69.44;100619.16;10164880;29;20480;-60
2023/04/07 20:16:03;;;;;;;2.85;2.35;;;;;;;10.78;69.81;100626.41;10165252;29;20052;-60
2023/04/07 20:21:04;;;;;;;3.85;2.30;;;;;;;10.79;69.81;100632.63;10150260;29;20059;-62
2023/04/07 20:26:07;;;;;;;6.25;2.80;;;;;;;10.65;70.29;100631.47;10160993;29;20064;-62
2023/04/07 20:31:09;;;;;;;4.53;2.08;;;;;;;10.58;70.18;100630.44;10154390;29;20115;-60
2023/04/07 20:36:10;;;;;;;4.45;2.13;;;;;;;10.38;70.62;100632.66;10152268;29;20131;-61
2023/04/07 20:41:13;;;;;;;5.65;2.72;;;;;;;10.32;70.94;100634.97;10159925;29;20135;-60
2023/04/07 20:46:15;;;;;;;5.68;3.50;;;;;;;10.24;71.13;100639.50;10153798;29;20051;-61
2023/04/07 20:51:16;;;;;;;3.35;2.58;;;;;;;10.30;70.93;100650.44;10158388;29;20582;-61
2023/04/07 20:56:18;;;;;;;3.30;2.35;;;;;;;10.30;71.02;100644.22;10160272;29;20114;-61
2023/04/07 21:01:19;;;;;;;5.43;2.95;;;;;;;10.42;70.60;100648.25;10156374;29;20074;-63
2023/04/07 21:06:21;;;;;;;3.17;2.33;;;;;;;10.44;70.73;100645.41;10158966;29;20057;-60
2023/04/07 21:11:22;;;;;;;3.90;2.85;;;;;;;10.36;71.21;100643.56;10161975;29;20060;-61
2023/04/07 21:16:23;;;;;;;3.45;2.35;;;;;;;10.31;70.95;100653.97;10159080;29;20075;-61
2023/04/07 21:21:25;;;;;;;2.35;2.13;;;;;;;10.44;70.73;100651.63;10160971;29;20048;-61
2023/04/07 21:26:26;;;;;;;4.40;2.42;;;;;;;10.41;70.60;100648.44;10159826;29;20108;-61
2023/04/07 21:31:28;;;;;;;4.30;2.30;;;;;;;10.27;71.21;100650.75;10156690;29;20116;-60
2023/04/07 21:36:30;;;;;;;4.10;2.60;;;;;;;10.23;71.01;100656.59;10154716;29;20084;-61
2023/04/07 21:41:32;;;;;;;2.55;1.88;;;;;;;10.19;71.18;100656.13;10160089;29;20079;-61
2023/04/07 21:46:33;;;;;;;3.17;2.15;;;;;;;10.17;71.12;100646.53;10158534;29;20127;-60
2023/04/07 21:51:36;;;;;;;3.05;2.22;;;;;;;10.18;70.75;100656.28;10150366;29;20487;-67
2023/04/07 21:56:37;;;;;;;3.22;1.63;;;;;;;10.23;70.94;100653.91;10149446;29;20080;-68
2023/04/07 22:01:38;;;;;;;3.95;2.30;;;;;;;10.32;70.64;100652.97;10153311;29;20132;-67
2023/04/07 22:06:40;;;;;;;3.63;1.95;;;;;;;10.38;70.54;100664.91;10158716;29;20040;-67
2023/04/07 22:11:41;;;;;;;3.30;2.10;;;;;;;10.29;70.59;100669.41;10158138;29;20048;-68
2023/04/07 22:16:43;;;;;;;3.08;2.17;;;;;;;10.34;70.62;100666.22;10156307;29;20083;-68
2023/04/07 22:21:44;;;;;;;2.65;2.17;;;;;;;10.38;70.51;100673.78;10159388;29;20085;-68
2023/04/07 22:26:46;;;;;;;2.58;1.90;;;;;;;10.33;70.63;100673.47;10156851;29;20044;-68
2023/04/07 22:31:47;;;;;;;3.50;2.40;;;;;;;10.37;70.25;100674.81;10143435;29;20385;-68
2023/04/07 22:36:48;;;;;;;5.20;2.63;;;;;;;10.42;70.34;100682.38;10163225;29;20052;-68
2023/04/07 22:41:50;;;;;;;4.20;2.45;;;;;;;10.46;70.24;100684.53;10158799;29;20139;-67
2023/04/07 22:46:51;;;;;;;5.00;2.05;;;;;;;10.49;69.93;100681.53;10158547;29;20087;-68
2023/04/07 22:51:54;;;;;;;3.85;2.90;;;;;;;10.52;69.93;100683.03;10161159;29;20678;-66
2023/04/07 22:56:56;;;;;;;3.17;2.45;;;;;;;10.48;70.38;100679.00;10157766;29;20131;-67
2023/04/07 23:01:57;;;;;;;2.63;2.08;;;;;;;10.38;70.46;100684.53;10160698;29;20100;-68
2023/04/07 23:06:59;;;;;;;2.45;1.60;;;;;;;10.21;70.88;100686.34;10151266;29;20064;-65